createdAt,value
2022-11-03T00:01:49.059Z,62.25
2022-11-03T00:06:54.984Z,54.80
2022-11-03T00:11:57.312Z,56.03
2022-11-03T00:16:59.644Z,55.45
2022-11-03T00:22:02.414Z,50.78
2022-11-03T00:27:04.963Z,50.85
2022-11-03T00:32:07.158Z,58.55
2022-11-03T00:37:09.348Z,58.58
2022-11-03T00:42:11.521Z,54.83
2022-11-03T00:47:13.721Z,52.00
2022-11-03T00:52:15.922Z,49.80
2022-11-03T00:57:18.263Z,48.85
2022-11-03T01:02:20.646Z,58.22
2022-11-03T01:07:22.926Z,59.55
2022-11-03T01:12:25.137Z,50.80
2022-11-03T01:17:28.776Z,60.10
2022-11-03T01:22:30.960Z,63.17
2022-11-03T01:27:35.614Z,56.83
2022-11-03T01:32:37.967Z,55.20
2022-11-03T01:37:40.146Z,54.80
2022-11-03T01:42:42.381Z,50.78
2022-11-03T01:47:45.159Z,48.15
2022-11-03T01:52:58.673Z,45.83
2022-11-03T01:58:06.336Z,50.42
2022-11-03T02:03:08.877Z,54.45
2022-11-03T02:08:22.879Z,45.13
2022-11-03T02:13:27.916Z,43.63
2022-11-03T02:18:33.517Z,36.00
2022-11-03T02:23:53.793Z,54.33
2022-11-03T02:34:00.642Z,53.08
2022-11-03T02:39:15.219Z,49.22
2022-11-03T02:44:20.336Z,48.28
2022-11-03T02:49:22.631Z,49.97
2022-11-03T02:54:32.907Z,46.67
2022-11-03T02:59:44.324Z,44.40
2022-11-03T03:04:56.941Z,43.63
2022-11-03T03:10:27.564Z,53.13
2022-11-03T03:21:00.277Z,51.53
2022-11-03T03:26:09.999Z,48.75
2022-11-03T03:31:15.132Z,48.55
2022-11-03T03:36:19.528Z,46.03
2022-11-03T03:41:24.465Z,57.70
2022-11-03T03:46:34.164Z,63.13
2022-11-03T03:51:38.240Z,56.35
2022-11-03T03:56:48.507Z,52.83
2022-11-03T04:01:51.120Z,45.55
2022-11-03T04:07:16.523Z,61.65
2022-11-03T04:12:37.630Z,57.83
2022-11-03T04:18:03.069Z,55.35
2022-11-03T04:23:05.416Z,69.57
2022-11-03T04:28:15.265Z,73.40
2022-11-03T04:33:20.747Z,61.63
2022-11-03T04:38:26.221Z,58.72
2022-11-03T04:43:36.474Z,59.63
2022-11-03T04:48:38.775Z,64.05
2022-11-03T04:53:48.893Z,72.22
2022-11-03T04:58:52.171Z,68.95
2022-11-03T05:03:55.514Z,63.53
2022-11-03T05:09:02.531Z,63.65
2022-11-03T05:14:30.616Z,62.50
2022-11-03T05:19:37.022Z,68.85
2022-11-03T05:24:39.446Z,62.97
2022-11-03T05:29:41.976Z,61.22
2022-11-03T05:34:48.351Z,62.60
2022-11-03T05:39:52.833Z,56.10
2022-11-03T05:44:55.773Z,63.78
2022-11-03T05:50:08.310Z,76.65
2022-11-03T05:55:24.992Z,80.78
2022-11-03T06:00:33.854Z,81.68
2022-11-03T06:05:36.308Z,78.10
2022-11-03T06:10:46.342Z,62.20
2022-11-03T06:20:59.108Z,66.40
2022-11-03T06:26:03.563Z,65.68
2022-11-03T06:31:20.289Z,67.57
2022-11-03T06:36:35.673Z,63.33
2022-11-03T06:41:38.053Z,59.47
2022-11-03T06:46:40.224Z,67.30
2022-11-03T06:51:42.453Z,62.22
2022-11-03T06:56:44.890Z,61.80
2022-11-03T07:01:56.245Z,76.13
2022-11-03T07:07:03.308Z,65.68
2022-11-03T07:12:16.771Z,60.40
2022-11-03T07:17:22.368Z,57.53
2022-11-03T07:22:26.850Z,58.72
2022-11-03T07:27:32.028Z,62.72
2022-11-03T07:32:35.774Z,61.88
2022-11-03T07:37:38.259Z,56.83
2022-11-03T07:42:40.532Z,50.83
2022-11-03T07:47:44.737Z,68.30
2022-11-03T07:52:47.152Z,66.80
2022-11-03T07:57:49.361Z,64.18
2022-11-03T08:03:02.694Z,67.32
2022-11-03T08:08:05.247Z,60.20
2022-11-03T08:13:07.998Z,56.15
2022-11-03T08:18:10.453Z,65.57
2022-11-03T08:23:25.339Z,38.40
2022-11-03T08:28:28.484Z,51.30
2022-11-03T08:33:34.077Z,49.05
2022-11-03T08:38:36.893Z,57.22
2022-11-03T08:43:41.865Z,47.60
2022-11-03T08:48:44.409Z,43.72
2022-11-03T08:53:50.835Z,52.75
2022-11-03T08:58:53.084Z,49.15
2022-11-03T09:03:55.319Z,36.55
2022-11-03T09:14:19.848Z,31.40
2022-11-03T09:19:22.266Z,41.35
2022-11-03T09:24:24.450Z,28.38
2022-11-03T09:29:30.043Z,34.58
2022-11-03T09:34:38.762Z,35.28
2022-11-03T09:39:41.106Z,26.20
2022-11-03T09:44:43.604Z,33.30
2022-11-03T09:49:45.800Z,35.67
2022-11-03T09:54:48.246Z,30.15
2022-11-03T09:59:51.925Z,33.92
2022-11-03T10:04:56.691Z,30.55
2022-11-03T10:10:01.775Z,30.67
2022-11-03T10:15:04.243Z,38.63
2022-11-03T10:20:16.245Z,33.63
2022-11-03T10:25:38.798Z,49.83
2022-11-03T10:31:18.545Z,39.90
2022-11-03T10:36:20.742Z,36.22
2022-11-03T10:41:25.120Z,37.50
2022-11-03T10:51:55.081Z,36.80
2022-11-03T10:56:57.270Z,32.03
2022-11-03T11:02:00.551Z,33.63
2022-11-03T11:07:03.043Z,39.03
2022-11-03T11:12:15.443Z,27.77
2022-11-03T11:17:56.211Z,37.47
2022-11-03T11:23:30.195Z,32.60
2022-11-03T11:28:32.575Z,29.92
2022-11-03T11:33:34.839Z,28.00
2022-11-03T11:38:52.882Z,32.00
2022-11-03T11:43:55.112Z,24.42
2022-11-03T11:48:57.254Z,29.67
2022-11-03T11:54:17.167Z,31.92
2022-11-03T11:59:25.576Z,29.27
2022-11-03T12:04:31.817Z,32.97
2022-11-03T12:09:34.429Z,29.38
2022-11-03T12:14:38.796Z,29.52
2022-11-03T12:19:41.415Z,28.38
2022-11-03T12:24:49.540Z,23.23
2022-11-03T12:29:53.615Z,27.50
2022-11-03T12:34:57.064Z,26.52
2022-11-03T12:39:59.425Z,25.00
2022-11-03T12:45:01.852Z,27.67
2022-11-03T12:50:05.019Z,27.00
2022-11-03T12:55:07.648Z,24.50
2022-11-03T13:00:10.445Z,36.15
2022-11-03T13:05:15.710Z,30.75
2022-11-03T13:10:18.052Z,21.92
2022-11-03T13:15:20.360Z,30.25
2022-11-03T13:20:23.006Z,30.80
2022-11-03T13:25:25.380Z,25.30
2022-11-03T13:30:28.060Z,31.92
2022-11-03T13:35:30.667Z,32.92
2022-11-03T13:45:59.372Z,29.23
2022-11-03T13:51:02.322Z,27.00
2022-11-03T13:56:08.552Z,19.15
2022-11-03T14:01:11.736Z,23.08
2022-11-03T14:06:14.217Z,26.15
2022-11-03T14:11:35.044Z,23.35
2022-11-03T14:16:37.582Z,26.10
2022-11-03T14:21:43.223Z,49.55
2022-11-03T14:26:45.897Z,59.20
2022-11-03T14:31:48.670Z,60.90
2022-11-03T14:36:51.475Z,99.80
2022-11-03T14:42:06.133Z,80.97
2022-11-03T14:47:11.191Z,73.47
2022-11-03T14:52:14.811Z,78.07
2022-11-03T14:57:17.353Z,64.88
2022-11-03T15:02:19.703Z,56.53
2022-11-03T15:07:22.407Z,27.75
2022-11-03T15:12:24.869Z,27.88
2022-11-03T15:17:27.395Z,29.92
2022-11-03T15:27:52.486Z,22.08
2022-11-03T15:32:57.041Z,22.92
2022-11-03T15:37:59.702Z,27.30
2022-11-03T15:43:03.267Z,33.10
2022-11-03T15:48:06.184Z,35.95
2022-11-03T15:53:08.620Z,48.42
2022-11-03T15:58:11.181Z,71.80
2022-11-03T16:03:13.986Z,67.70
2022-11-03T16:08:16.773Z,86.45
2022-11-03T16:13:19.561Z,86.13
2022-11-03T16:18:22.539Z,73.22
2022-11-03T16:23:25.547Z,78.55
2022-11-03T16:28:28.549Z,81.63
2022-11-03T16:33:31.045Z,69.18
2022-11-03T16:38:33.595Z,62.67
2022-11-03T16:43:36.157Z,79.95
2022-11-03T16:48:38.549Z,77.82
2022-11-03T16:53:40.995Z,66.72
2022-11-03T16:58:43.574Z,54.60
2022-11-03T17:03:46.175Z,38.92
2022-11-03T17:08:53.207Z,41.85
2022-11-03T17:13:56.206Z,45.78
2022-11-03T17:18:59.427Z,44.65
2022-11-03T17:24:02.287Z,36.63
2022-11-03T17:29:05.408Z,43.15
2022-11-03T17:34:11.657Z,40.22
2022-11-03T17:39:17.627Z,53.63
2022-11-03T17:44:20.293Z,59.95
2022-11-03T17:49:22.790Z,52.97
2022-11-03T17:54:28.135Z,49.50
2022-11-03T17:59:30.913Z,54.08
2022-11-03T18:04:33.603Z,42.95
2022-11-03T18:09:36.015Z,39.83
2022-11-03T18:14:38.292Z,48.85
2022-11-03T18:19:40.821Z,60.58
2022-11-03T18:24:43.474Z,36.90
2022-11-03T18:29:46.093Z,33.92
2022-11-03T18:34:48.440Z,37.42
2022-11-03T18:39:50.888Z,45.05
2022-11-03T18:44:53.156Z,45.63
2022-11-03T18:49:55.694Z,36.28
2022-11-03T18:54:58.043Z,31.33
2022-11-03T19:00:01.624Z,31.63
2022-11-03T19:05:04.013Z,38.58
2022-11-03T19:10:12.891Z,33.70
2022-11-03T19:15:23.580Z,32.58
2022-11-03T19:20:25.961Z,35.97
2022-11-03T19:25:28.395Z,56.25
2022-11-03T19:30:30.953Z,43.38
2022-11-03T19:35:35.802Z,44.85
2022-11-03T19:40:39.528Z,45.40
2022-11-03T19:45:42.327Z,47.88
2022-11-03T19:50:45.548Z,54.67
2022-11-03T19:55:49.070Z,43.22
2022-11-03T20:00:52.865Z,45.80
2022-11-03T20:05:57.716Z,49.25
2022-11-03T20:11:00.389Z,39.92
2022-11-03T20:16:02.693Z,30.45
2022-11-03T20:21:05.263Z,35.05
2022-11-03T20:26:23.351Z,38.50
2022-11-03T20:31:25.998Z,36.08
2022-11-03T20:36:31.225Z,48.55
2022-11-03T20:41:33.863Z,45.63
2022-11-03T20:46:36.915Z,51.00
2022-11-03T20:51:44.805Z,49.58
2022-11-03T20:56:48.315Z,57.90
2022-11-03T21:01:52.788Z,44.15
2022-11-03T21:06:55.775Z,42.45
2022-11-03T21:11:58.190Z,39.65
2022-11-03T21:17:19.187Z,30.98
2022-11-03T21:22:50.674Z,31.25
2022-11-03T21:27:47.276Z,32.45
2022-11-03T21:32:50.325Z,44.22
2022-11-03T21:37:53.021Z,47.00
2022-11-03T21:43:14.095Z,48.78
2022-11-03T21:48:35.352Z,51.92
2022-11-03T21:53:37.532Z,62.63
2022-11-03T21:58:40.808Z,65.95
2022-11-03T22:03:43.117Z,65.40
2022-11-03T22:08:45.447Z,63.10
2022-11-03T22:13:52.152Z,55.22
2022-11-03T22:19:14.461Z,55.05
2022-11-03T22:24:35.526Z,50.80
2022-11-03T22:29:56.113Z,45.38
2022-11-03T22:35:24.713Z,50.72
2022-11-03T22:40:45.531Z,57.78
2022-11-03T22:45:55.415Z,54.88
2022-11-03T22:51:05.352Z,57.72
2022-11-03T22:56:08.208Z,49.28
2022-11-03T23:01:13.054Z,54.85
2022-11-03T23:06:18.320Z,52.75
2022-11-03T23:11:26.028Z,55.63
2022-11-03T23:16:33.811Z,47.95
2022-11-03T23:21:36.644Z,48.45
2022-11-03T23:26:39.500Z,58.83
2022-11-03T23:31:43.750Z,55.63
2022-11-03T23:36:46.386Z,50.03
2022-11-03T23:41:50.792Z,50.42
2022-11-03T23:47:11.740Z,50.25
2022-11-03T23:52:14.284Z,49.83
2022-11-03T23:57:45.632Z,57.72
